SWA3385 KSAV-KMDW
Flight info
| Callsign | SWA3385 |
|---|---|
| Flight time | N/A |
| Altitude | 39000 |
| Route | SMALZ MILEN QUIWE Q93 HEVAN DROSE FISSK7 |
| Aircraft | B38M/M-SADE2E3GHIJ4J7P2RWZ/LB1D1 |
Departure
| Time | 2026-04-26 22:35 |
|---|---|
| Airport | Savannah Hilton Head International Airport (KSAV) |
Arrival
| Time | N/A |
|---|---|
| Airport | Chicago Midway International Airport (KMDW) |
| Time | Latitude | Longitude | Altitude | Speed | Heading |
|---|---|---|---|---|---|
| 2026-04-26 22:18 | 32.13610 | -81.20899 | 56 ft | 0 kts | 180° |
| 2026-04-26 22:23 | 32.13620 | -81.20899 | 50 ft | 3 kts | 180° |
| 2026-04-26 22:23 | 32.13638 | -81.20899 | 50 ft | 3 kts | 180° |
| 2026-04-26 22:23 | 32.13656 | -81.20899 | 54 ft | 3 kts | 180° |
| 2026-04-26 22:23 | 32.13666 | -81.20899 | 52 ft | 0 kts | 180° |
| 2026-04-26 22:26 | 32.13658 | -81.20892 | 52 ft | 3 kts | 123° |
| 2026-04-26 22:26 | 32.13667 | -81.20844 | 56 ft | 13 kts | 75° |
| 2026-04-26 22:27 | 32.13674 | -81.20677 | 56 ft | 27 kts | 91° |
| 2026-04-26 22:27 | 32.13670 | -81.20440 | 50 ft | 28 kts | 90° |
| 2026-04-26 22:27 | 32.13604 | -81.20332 | 56 ft | 18 kts | 177° |
| 2026-04-26 22:27 | 32.13475 | -81.20332 | 53 ft | 20 kts | 179° |
| 2026-04-26 22:28 | 32.13331 | -81.20327 | 54 ft | 22 kts | 178° |
| 2026-04-26 22:28 | 32.13182 | -81.20325 | 52 ft | 20 kts | 180° |
| 2026-04-26 22:28 | 32.13057 | -81.20333 | 55 ft | 13 kts | 211° |
| 2026-04-26 22:28 | 32.13035 | -81.20440 | 52 ft | 15 kts | 270° |
| 2026-04-26 22:29 | 32.13037 | -81.20575 | 49 ft | 18 kts | 271° |
| 2026-04-26 22:29 | 32.13039 | -81.20726 | 54 ft | 19 kts | 271° |
| 2026-04-26 22:29 | 32.13040 | -81.20862 | 54 ft | 17 kts | 270° |
| 2026-04-26 22:29 | 32.13041 | -81.21015 | 54 ft | 20 kts | 271° |
| 2026-04-26 22:30 | 32.13044 | -81.21189 | 54 ft | 22 kts | 270° |
| 2026-04-26 22:30 | 32.13045 | -81.21381 | 54 ft | 22 kts | 270° |
| 2026-04-26 22:30 | 32.13046 | -81.21539 | 54 ft | 17 kts | 271° |
| 2026-04-26 22:30 | 32.13048 | -81.21682 | 52 ft | 14 kts | 271° |
| 2026-04-26 22:31 | 32.13050 | -81.21791 | 54 ft | 14 kts | 270° |
| 2026-04-26 22:31 | 32.13004 | -81.21858 | 52 ft | 10 kts | 191° |
| 2026-04-26 22:31 | 32.12978 | -81.21859 | 50 ft | 4 kts | 180° |
| 2026-04-26 22:31 | 32.12911 | -81.21861 | 41 ft | 12 kts | 181° |
| 2026-04-26 22:32 | 32.12874 | -81.21820 | 39 ft | 6 kts | 95° |
| 2026-04-26 22:32 | 32.12874 | -81.21785 | 41 ft | 0 kts | 89° |
| 2026-04-26 22:34 | 32.12874 | -81.21780 | 41 ft | 4 kts | 89° |
| 2026-04-26 22:34 | 32.12872 | -81.21487 | 42 ft | 75 kts | 91° |
| 2026-04-26 22:34 | 32.12864 | -81.20586 | 45 ft | 142 kts | 90° |
| 2026-04-26 22:34 | 32.12871 | -81.19271 | 382 ft | 170 kts | 88° |
| 2026-04-26 22:35 | 32.12921 | -81.17840 | 1190 ft | 179 kts | 88° |
| 2026-04-26 22:35 | 32.12979 | -81.16320 | 1899 ft | 195 kts | 89° |
| 2026-04-26 22:35 | 32.13016 | -81.14623 | 2454 ft | 217 kts | 89° |
| 2026-04-26 22:35 | 32.13077 | -81.12758 | 2696 ft | 239 kts | 77° |
| 2026-04-26 22:36 | 32.13955 | -81.11127 | 3463 ft | 245 kts | 36° |
| 2026-04-26 22:36 | 32.15526 | -81.10465 | 4415 ft | 244 kts | 358° |
| 2026-04-26 22:36 | 32.17160 | -81.11030 | 5170 ft | 254 kts | 323° |
| 2026-04-26 22:36 | 32.18346 | -81.12620 | 5951 ft | 265 kts | 303° |
| 2026-04-26 22:37 | 32.19498 | -81.14319 | 7011 ft | 266 kts | 309° |
| 2026-04-26 22:37 | 32.20716 | -81.15989 | 8000 ft | 271 kts | 309° |
| 2026-04-26 22:37 | 32.21957 | -81.17682 | 8980 ft | 275 kts | 309° |
| 2026-04-26 22:37 | 32.23218 | -81.19401 | 9944 ft | 279 kts | 309° |
| 2026-04-26 22:38 | 32.24518 | -81.21168 | 10644 ft | 293 kts | 310° |
| 2026-04-26 22:38 | 32.25845 | -81.22962 | 11698 ft | 287 kts | 309° |
| 2026-04-26 22:38 | 32.27152 | -81.24760 | 12592 ft | 294 kts | 309° |
| 2026-04-26 22:38 | 32.28545 | -81.26643 | 13080 ft | 314 kts | 310° |
| 2026-04-26 22:39 | 32.30026 | -81.28635 | 13615 ft | 330 kts | 310° |
| 2026-04-26 22:39 | 32.31560 | -81.30707 | 14264 ft | 339 kts | 309° |
| 2026-04-26 22:39 | 32.33108 | -81.32819 | 15144 ft | 341 kts | 309° |
| 2026-04-26 22:39 | 32.34664 | -81.34953 | 15955 ft | 344 kts | 309° |
| 2026-04-26 22:40 | 32.36234 | -81.37112 | 16751 ft | 347 kts | 309° |
| 2026-04-26 22:40 | 32.37817 | -81.39294 | 17532 ft | 351 kts | 309° |
| 2026-04-26 22:40 | 32.39413 | -81.41496 | 18274 ft | 354 kts | 309° |
| 2026-04-26 22:40 | 32.41000 | -81.43690 | 18910 ft | 357 kts | 309° |
| 2026-04-26 22:41 | 32.42624 | -81.45937 | 19555 ft | 361 kts | 309° |
| 2026-04-26 22:41 | 32.44269 | -81.48214 | 20166 ft | 365 kts | 308° |
| 2026-04-26 22:41 | 32.45950 | -81.50492 | 20770 ft | 370 kts | 313° |
| 2026-04-26 22:41 | 32.48052 | -81.52287 | 21396 ft | 379 kts | 331° |
| 2026-04-26 22:42 | 32.50586 | -81.53259 | 21997 ft | 389 kts | 346° |
| 2026-04-26 22:42 | 32.53266 | -81.53822 | 22546 ft | 394 kts | 346° |
| 2026-04-26 22:42 | 32.55987 | -81.54379 | 23108 ft | 398 kts | 346° |
| 2026-04-26 22:42 | 32.57799 | -81.54739 | 23483 ft | 401 kts | 346° |
| 2026-04-26 22:43 | 32.60568 | -81.55279 | 23955 ft | 405 kts | 346° |
| 2026-04-26 22:43 | 32.63353 | -81.55815 | 24455 ft | 407 kts | 347° |
| 2026-04-26 22:43 | 32.66154 | -81.56352 | 24950 ft | 409 kts | 347° |
| 2026-04-26 22:43 | 32.68977 | -81.56893 | 25445 ft | 412 kts | 346° |
| 2026-04-26 22:44 | 32.71815 | -81.57437 | 25922 ft | 414 kts | 346° |
| 2026-04-26 22:44 | 32.74667 | -81.57984 | 26399 ft | 417 kts | 346° |
| 2026-04-26 22:44 | 32.77539 | -81.58535 | 26855 ft | 419 kts | 346° |
| 2026-04-26 22:44 | 32.80434 | -81.59090 | 27311 ft | 422 kts | 346° |
| 2026-04-26 22:45 | 32.83307 | -81.59642 | 27760 ft | 424 kts | 346° |
| 2026-04-26 22:45 | 32.86229 | -81.60204 | 28197 ft | 427 kts | 346° |
| 2026-04-26 22:45 | 32.89182 | -81.60753 | 28607 ft | 431 kts | 349° |
| 2026-04-26 22:45 | 32.92207 | -81.60697 | 29067 ft | 440 kts | 2° |
| 2026-04-26 22:46 | 32.95257 | -81.60381 | 29470 ft | 442 kts | 360° |
| 2026-04-26 22:46 | 32.98334 | -81.60098 | 29837 ft | 445 kts | 0° |
| 2026-04-26 22:46 | 33.01432 | -81.59795 | 30211 ft | 448 kts | 0° |
| 2026-04-26 22:46 | 33.04541 | -81.59483 | 30561 ft | 450 kts | 0° |
| 2026-04-26 22:47 | 33.07672 | -81.59167 | 30924 ft | 452 kts | 0° |
| 2026-04-26 22:47 | 33.10812 | -81.58849 | 31269 ft | 454 kts | 0° |
| 2026-04-26 22:47 | 33.13965 | -81.58529 | 31613 ft | 456 kts | 0° |
| 2026-04-26 22:47 | 33.17137 | -81.58208 | 31967 ft | 458 kts | 0° |
| 2026-04-26 22:48 | 33.20323 | -81.57885 | 32311 ft | 460 kts | 0° |
| 2026-04-26 22:48 | 33.23521 | -81.57560 | 32625 ft | 463 kts | 0° |
| 2026-04-26 22:48 | 33.26743 | -81.57232 | 32974 ft | 464 kts | 0° |
| 2026-04-26 22:48 | 33.29960 | -81.56905 | 33441 ft | 463 kts | 360° |
| 2026-04-26 22:49 | 33.33162 | -81.56579 | 33933 ft | 461 kts | 360° |
| 2026-04-26 22:49 | 33.36357 | -81.56254 | 34342 ft | 460 kts | 360° |
| 2026-04-26 22:49 | 33.39536 | -81.55930 | 34732 ft | 459 kts | 359° |
| 2026-04-26 22:49 | 33.42671 | -81.55610 | 35111 ft | 457 kts | 359° |
| 2026-04-26 22:50 | 33.45881 | -81.55282 | 35515 ft | 456 kts | 359° |
| 2026-04-26 22:50 | 33.48993 | -81.54965 | 35872 ft | 455 kts | 359° |
| 2026-04-26 22:50 | 33.52142 | -81.54643 | 36224 ft | 454 kts | 359° |
| 2026-04-26 22:50 | 33.55288 | -81.54321 | 36567 ft | 453 kts | 358° |
| 2026-04-26 22:51 | 33.58428 | -81.53999 | 36905 ft | 452 kts | 358° |
| 2026-04-26 22:51 | 33.61560 | -81.53678 | 37233 ft | 452 kts | 358° |
| 2026-04-26 22:51 | 33.64685 | -81.53357 | 37541 ft | 451 kts | 358° |
| 2026-04-26 22:51 | 33.67808 | -81.53037 | 37854 ft | 450 kts | 358° |
| 2026-04-26 22:52 | 33.70934 | -81.52716 | 38155 ft | 449 kts | 358° |
| 2026-04-26 22:52 | 33.74048 | -81.52396 | 38439 ft | 449 kts | 358° |
| 2026-04-26 22:52 | 33.77149 | -81.52077 | 38696 ft | 448 kts | 357° |
| 2026-04-26 22:52 | 33.80255 | -81.51757 | 38882 ft | 448 kts | 358° |
| 2026-04-26 22:53 | 33.83372 | -81.51436 | 38986 ft | 449 kts | 358° |
| 2026-04-26 22:53 | 33.89595 | -81.50795 | 38983 ft | 449 kts | 358° |
| 2026-04-26 22:54 | 33.95788 | -81.50486 | 38962 ft | 435 kts | 343° |
| 2026-04-26 22:54 | 34.01738 | -81.51765 | 38993 ft | 436 kts | 342° |
| 2026-04-26 22:55 | 34.07709 | -81.53081 | 39011 ft | 436 kts | 342° |
| 2026-04-26 22:55 | 34.13635 | -81.54428 | 39025 ft | 437 kts | 342° |
| 2026-04-26 22:56 | 34.19619 | -81.55793 | 39039 ft | 438 kts | 342° |
| 2026-04-26 22:56 | 34.25612 | -81.57164 | 39049 ft | 439 kts | 342° |
| 2026-04-26 22:57 | 34.31612 | -81.58537 | 39045 ft | 439 kts | 342° |
| 2026-04-26 22:57 | 34.37630 | -81.59917 | 39046 ft | 441 kts | 342° |
| 2026-04-26 22:58 | 34.43659 | -81.61302 | 39038 ft | 441 kts | 342° |
| 2026-04-26 22:58 | 34.49707 | -81.62693 | 39032 ft | 443 kts | 342° |
| 2026-04-26 22:59 | 34.55769 | -81.64089 | 39020 ft | 443 kts | 342° |
| 2026-04-26 22:59 | 34.61841 | -81.65490 | 39013 ft | 445 kts | 342° |
| 2026-04-26 23:00 | 34.67931 | -81.66897 | 39014 ft | 446 kts | 342° |
| 2026-04-26 23:00 | 34.73991 | -81.68298 | 39014 ft | 447 kts | 341° |
| 2026-04-26 23:01 | 34.80102 | -81.69714 | 39011 ft | 447 kts | 341° |
| 2026-04-26 23:01 | 34.86234 | -81.71138 | 39017 ft | 449 kts | 341° |
| 2026-04-26 23:02 | 34.92374 | -81.72564 | 39013 ft | 449 kts | 341° |
| 2026-04-26 23:02 | 34.98529 | -81.74003 | 39016 ft | 451 kts | 341° |